sensor_id;sensor_type;location;lat;lon;timestamp;pressure;altitude;pressure_sealevel;temperature;humidity
34297;BME280;20564;42.902;25.336;2022-08-01T00:00:36;96948.16;;;17.74;95.78
34297;BME280;20564;42.902;25.336;2022-08-01T00:03:03;96951.13;;;17.64;96.17
34297;BME280;20564;42.902;25.336;2022-08-01T00:05:31;96944.19;;;17.63;96.23
34297;BME280;20564;42.902;25.336;2022-08-01T00:07:58;96933.47;;;17.56;93.49
34297;BME280;20564;42.902;25.336;2022-08-01T00:10:26;96946.69;;;17.50;94.58
34297;BME280;20564;42.902;25.336;2022-08-01T00:12:54;96939.28;;;17.45;91.35
34297;BME280;20564;42.902;25.336;2022-08-01T00:15:21;96933.97;;;17.45;93.05
34297;BME280;20564;42.902;25.336;2022-08-01T00:17:48;96936.50;;;17.53;95.60
34297;BME280;20564;42.902;25.336;2022-08-01T00:20:16;96931.69;;;17.64;95.56
34297;BME280;20564;42.902;25.336;2022-08-01T00:22:43;96931.41;;;17.58;95.25
34297;BME280;20564;42.902;25.336;2022-08-01T00:25:10;96928.00;;;17.65;95.33
34297;BME280;20564;42.902;25.336;2022-08-01T00:27:37;96932.19;;;17.74;95.17
34297;BME280;20564;42.902;25.336;2022-08-01T00:30:05;96929.66;;;17.66;94.67
34297;BME280;20564;42.902;25.336;2022-08-01T00:32:41;96919.41;;;17.63;94.99
34297;BME280;20564;42.902;25.336;2022-08-01T00:35:10;96919.00;;;17.66;95.50
34297;BME280;20564;42.902;25.336;2022-08-01T00:37:37;96910.84;;;17.67;94.93
34297;BME280;20564;42.902;25.336;2022-08-01T00:40:05;96902.28;;;17.72;94.21
34297;BME280;20564;42.902;25.336;2022-08-01T00:42:33;96907.97;;;17.69;94.26
34297;BME280;20564;42.902;25.336;2022-08-01T00:45:00;96897.97;;;17.71;94.24
34297;BME280;20564;42.902;25.336;2022-08-01T00:47:27;96896.06;;;17.65;92.62
34297;BME280;20564;42.902;25.336;2022-08-01T00:49:54;96891.06;;;17.55;94.26
34297;BME280;20564;42.902;25.336;2022-08-01T00:52:21;96901.31;;;17.58;94.54
34297;BME280;20564;42.902;25.336;2022-08-01T00:54:48;96893.69;;;17.48;95.28
34297;BME280;20564;42.902;25.336;2022-08-01T00:57:16;96898.59;;;17.51;94.93
34297;BME280;20564;42.902;25.336;2022-08-01T01:00:04;96896.97;;;17.50;95.15
34297;BME280;20564;42.902;25.336;2022-08-01T01:02:32;96895.09;;;17.44;94.77
34297;BME280;20564;42.902;25.336;2022-08-01T01:04:59;96895.09;;;17.44;94.94
34297;BME280;20564;42.902;25.336;2022-08-01T01:07:58;96898.56;;;17.45;94.87
34297;BME280;20564;42.902;25.336;2022-08-01T01:10:40;96890.88;;;17.35;94.58
34297;BME280;20564;42.902;25.336;2022-08-01T01:15:59;96892.47;;;17.29;95.13
34297;BME280;20564;42.902;25.336;2022-08-01T01:18:35;96895.97;;;17.30;94.74
34297;BME280;20564;42.902;25.336;2022-08-01T01:24:08;96889.94;;;17.21;95.01
34297;BME280;20564;42.902;25.336;2022-08-01T01:26:51;96902.03;;;17.24;94.89
34297;BME280;20564;42.902;25.336;2022-08-01T01:32:38;96902.91;;;17.09;95.90
34297;BME280;20564;42.902;25.336;2022-08-01T01:35:09;96898.78;;;17.07;95.61
34297;BME280;20564;42.902;25.336;2022-08-01T01:37:39;96890.25;;;17.11;95.04
34297;BME280;20564;42.902;25.336;2022-08-01T01:40:09;96887.97;;;17.08;94.54
34297;BME280;20564;42.902;25.336;2022-08-01T01:42:39;96888.72;;;17.02;94.73
34297;BME280;20564;42.902;25.336;2022-08-01T01:45:07;96890.56;;;17.02;94.90
34297;BME280;20564;42.902;25.336;2022-08-01T01:47:36;96887.06;;;17.01;93.45
34297;BME280;20564;42.902;25.336;2022-08-01T01:50:05;96886.28;;;16.86;94.99
34297;BME280;20564;42.902;25.336;2022-08-01T01:52:35;96885.19;;;16.66;93.95
34297;BME280;20564;42.902;25.336;2022-08-01T01:55:06;96875.00;;;16.69;95.33
34297;BME280;20564;42.902;25.336;2022-08-01T01:57:41;96879.34;;;16.55;97.05
34297;BME280;20564;42.902;25.336;2022-08-01T02:00:11;96863.03;;;16.58;96.16
34297;BME280;20564;42.902;25.336;2022-08-01T02:02:40;96875.88;;;16.40;97.01
34297;BME280;20564;42.902;25.336;2022-08-01T02:05:11;96869.47;;;16.49;96.15
34297;BME280;20564;42.902;25.336;2022-08-01T02:07:39;96869.84;;;16.46;96.96
34297;BME280;20564;42.902;25.336;2022-08-01T02:10:08;96868.16;;;16.45;97.50
34297;BME280;20564;42.902;25.336;2022-08-01T02:12:40;96868.72;;;16.55;96.56
34297;BME280;20564;42.902;25.336;2022-08-01T02:15:09;96871.47;;;16.47;96.95
34297;BME280;20564;42.902;25.336;2022-08-01T02:17:47;96870.38;;;16.56;96.61
34297;BME280;20564;42.902;25.336;2022-08-01T02:20:15;96859.75;;;16.56;96.28
34297;BME280;20564;42.902;25.336;2022-08-01T02:23:00;96869.63;;;16.62;96.47
34297;BME280;20564;42.902;25.336;2022-08-01T02:25:36;96873.66;;;16.58;95.66
34297;BME280;20564;42.902;25.336;2022-08-01T02:28:29;96866.25;;;16.54;94.86
34297;BME280;20564;42.902;25.336;2022-08-01T02:31:02;96854.34;;;16.50;94.74
34297;BME280;20564;42.902;25.336;2022-08-01T02:33:38;96859.22;;;16.46;95.70
34297;BME280;20564;42.902;25.336;2022-08-01T02:36:07;96861.56;;;16.41;94.68
34297;BME280;20564;42.902;25.336;2022-08-01T02:38:56;96866.63;;;16.36;95.54
34297;BME280;20564;42.902;25.336;2022-08-01T02:41:26;96855.81;;;16.37;96.14
34297;BME280;20564;42.902;25.336;2022-08-01T02:43:59;96851.31;;;16.38;95.95
34297;BME280;20564;42.902;25.336;2022-08-01T02:46:38;96854.63;;;16.40;95.11
34297;BME280;20564;42.902;25.336;2022-08-01T02:49:10;96849.97;;;16.42;94.84
34297;BME280;20564;42.902;25.336;2022-08-01T02:51:39;96849.56;;;16.45;94.62
34297;BME280;20564;42.902;25.336;2022-08-01T02:54:08;96848.94;;;16.43;94.58
34297;BME280;20564;42.902;25.336;2022-08-01T02:56:38;96845.28;;;16.44;94.28
34297;BME280;20564;42.902;25.336;2022-08-01T02:59:10;96848.94;;;16.43;94.14
34297;BME280;20564;42.902;25.336;2022-08-01T03:01:42;96842.44;;;16.46;92.58
34297;BME280;20564;42.902;25.336;2022-08-01T03:04:10;96839.72;;;16.39;93.80
34297;BME280;20564;42.902;25.336;2022-08-01T03:06:39;96840.19;;;16.28;93.46
34297;BME280;20564;42.902;25.336;2022-08-01T03:09:10;96839.16;;;16.29;93.88
34297;BME280;20564;42.902;25.336;2022-08-01T03:11:41;96832.84;;;16.30;92.73
34297;BME280;20564;42.902;25.336;2022-08-01T03:14:11;96840.53;;;16.25;93.76
34297;BME280;20564;42.902;25.336;2022-08-01T03:16:41;96831.56;;;16.26;93.37
34297;BME280;20564;42.902;25.336;2022-08-01T03:19:12;96838.50;;;16.27;93.59
34297;BME280;20564;42.902;25.336;2022-08-01T03:21:41;96832.56;;;16.25;91.72
34297;BME280;20564;42.902;25.336;2022-08-01T03:24:10;96831.91;;;16.23;93.21
34297;BME280;20564;42.902;25.336;2022-08-01T03:26:39;96831.22;;;15.99;91.16
34297;BME280;20564;42.902;25.336;2022-08-01T03:29:11;96837.31;;;15.70;94.33
34297;BME280;20564;42.902;25.336;2022-08-01T03:31:40;96843.09;;;15.74;95.21
34297;BME280;20564;42.902;25.336;2022-08-01T03:34:10;96836.69;;;15.83;95.63
34297;BME280;20564;42.902;25.336;2022-08-01T03:36:45;96834.69;;;15.85;95.13
34297;BME280;20564;42.902;25.336;2022-08-01T03:39:16;96837.59;;;15.90;95.11
34297;BME280;20564;42.902;25.336;2022-08-01T03:41:51;96831.56;;;15.96;93.23
34297;BME280;20564;42.902;25.336;2022-08-01T03:44:25;96826.25;;;15.96;93.57
34297;BME280;20564;42.902;25.336;2022-08-01T03:47:04;96825.06;;;15.99;92.83
34297;BME280;20564;42.902;25.336;2022-08-01T03:49:33;96836.16;;;16.02;92.72
34297;BME280;20564;42.902;25.336;2022-08-01T03:52:04;96832.75;;;15.94;93.79
34297;BME280;20564;42.902;25.336;2022-08-01T03:54:36;96831.56;;;15.96;93.70
34297;BME280;20564;42.902;25.336;2022-08-01T03:57:04;96824.97;;;16.07;92.80
34297;BME280;20564;42.902;25.336;2022-08-01T03:59:34;96819.56;;;16.15;92.04
34297;BME280;20564;42.902;25.336;2022-08-01T04:02:04;96822.97;;;16.09;93.09
34297;BME280;20564;42.902;25.336;2022-08-01T04:04:32;96818.84;;;16.06;90.72
34297;BME280;20564;42.902;25.336;2022-08-01T04:07:00;96826.16;;;16.04;92.77
34297;BME280;20564;42.902;25.336;2022-08-01T04:09:33;96831.75;;;16.09;93.20
34297;BME280;20564;42.902;25.336;2022-08-01T04:12:00;96822.06;;;16.17;93.21
34297;BME280;20564;42.902;25.336;2022-08-01T04:14:37;96834.13;;;16.19;92.38
34297;BME280;20564;42.902;25.336;2022-08-01T04:17:04;96826.25;;;16.26;92.76
34297;BME280;20564;42.902;25.336;2022-08-01T04:19:31;96839.34;;;16.27;93.47
34297;BME280;20564;42.902;25.336;2022-08-01T04:21:59;96824.75;;;16.38;92.89
34297;BME280;20564;42.902;25.336;2022-08-01T04:24:27;96820.88;;;16.55;92.68
34297;BME280;20564;42.902;25.336;2022-08-01T04:26:58;96833.88;;;16.80;92.47
34297;BME280;20564;42.902;25.336;2022-08-01T04:29:27;96835.41;;;17.10;91.43
34297;BME280;20564;42.902;25.336;2022-08-01T04:31:57;96827.91;;;17.42;89.60
34297;BME280;20564;42.902;25.336;2022-08-01T04:34:28;96830.00;;;17.75;87.84
34297;BME280;20564;42.902;25.336;2022-08-01T04:36:57;96829.88;;;18.11;86.18
34297;BME280;20564;42.902;25.336;2022-08-01T04:39:26;96838.03;;;18.44;85.60
34297;BME280;20564;42.902;25.336;2022-08-01T04:41:55;96839.41;;;18.75;82.67
34297;BME280;20564;42.902;25.336;2022-08-01T04:44:25;96841.53;;;19.06;81.98
34297;BME280;20564;42.902;25.336;2022-08-01T04:47:02;96830.91;;;19.39;80.03
34297;BME280;20564;42.902;25.336;2022-08-01T04:49:34;96828.66;;;19.76;81.78
34297;BME280;20564;42.902;25.336;2022-08-01T04:52:14;96825.94;;;20.09;78.95
34297;BME280;20564;42.902;25.336;2022-08-01T04:54:50;96827.94;;;20.40;76.62
34297;BME280;20564;42.902;25.336;2022-08-01T04:57:17;96816.72;;;20.70;77.06
34297;BME280;20564;42.902;25.336;2022-08-01T04:59:44;96823.09;;;21.07;74.60
34297;BME280;20564;42.902;25.336;2022-08-01T05:02:26;96823.28;;;21.44;68.33
34297;BME280;20564;42.902;25.336;2022-08-01T05:04:55;96810.56;;;21.83;63.84
34297;BME280;20564;42.902;25.336;2022-08-01T05:07:23;96808.63;;;22.15;56.69
34297;BME280;20564;42.902;25.336;2022-08-01T05:09:50;96813.25;;;22.45;55.61
34297;BME280;20564;42.902;25.336;2022-08-01T05:12:18;96810.38;;;22.76;53.38
34297;BME280;20564;42.902;25.336;2022-08-01T05:14:45;96806.78;;;23.01;51.79
34297;BME280;20564;42.902;25.336;2022-08-01T05:17:12;96811.03;;;23.20;50.38
34297;BME280;20564;42.902;25.336;2022-08-01T05:19:41;96809.44;;;23.43;50.96
34297;BME280;20564;42.902;25.336;2022-08-01T05:22:09;96801.88;;;23.63;48.93
34297;BME280;20564;42.902;25.336;2022-08-01T05:24:39;96802.63;;;23.70;46.23
34297;BME280;20564;42.902;25.336;2022-08-01T05:27:08;96789.63;;;23.91;46.62
34297;BME280;20564;42.902;25.336;2022-08-01T05:29:39;96795.25;;;24.01;45.11
34297;BME280;20564;42.902;25.336;2022-08-01T05:32:10;96795.00;;;24.14;44.70
34297;BME280;20564;42.902;25.336;2022-08-01T05:34:37;96794.13;;;24.37;44.57
34297;BME280;20564;42.902;25.336;2022-08-01T05:37:04;96787.22;;;24.53;43.75
34297;BME280;20564;42.902;25.336;2022-08-01T05:39:31;96793.69;;;24.81;44.03
34297;BME280;20564;42.902;25.336;2022-08-01T05:41:58;96789.66;;;24.95;42.35
34297;BME280;20564;42.902;25.336;2022-08-01T05:44:25;96790.88;;;25.04;42.21
34297;BME280;20564;42.902;25.336;2022-08-01T05:46:53;96790.69;;;25.22;41.95
34297;BME280;20564;42.902;25.336;2022-08-01T05:49:20;96796.91;;;25.40;41.74
34297;BME280;20564;42.902;25.336;2022-08-01T05:51:47;96795.78;;;25.36;40.92
34297;BME280;20564;42.902;25.336;2022-08-01T05:54:14;96800.81;;;25.15;40.07
34297;BME280;20564;42.902;25.336;2022-08-01T05:56:41;96794.78;;;25.25;39.74
34297;BME280;20564;42.902;25.336;2022-08-01T05:59:08;96799.38;;;25.41;39.95
34297;BME280;20564;42.902;25.336;2022-08-01T06:01:35;96795.84;;;25.41;40.33
34297;BME280;20564;42.902;25.336;2022-08-01T06:04:03;96787.94;;;25.68;39.15
34297;BME280;20564;42.902;25.336;2022-08-01T06:06:30;96791.22;;;25.87;39.04
34297;BME280;20564;42.902;25.336;2022-08-01T06:08:57;96797.91;;;25.84;38.40
34297;BME280;20564;42.902;25.336;2022-08-01T06:11:24;96799.06;;;25.71;38.15
34297;BME280;20564;42.902;25.336;2022-08-01T06:13:52;96793.97;;;25.58;38.14
34297;BME280;20564;42.902;25.336;2022-08-01T06:16:20;96805.84;;;25.57;38.08
34297;BME280;20564;42.902;25.336;2022-08-01T06:18:47;96791.53;;;25.40;38.39
34297;BME280;20564;42.902;25.336;2022-08-01T06:21:14;96796.25;;;25.33;38.95
34297;BME280;20564;42.902;25.336;2022-08-01T06:23:41;96792.81;;;25.20;38.63
34297;BME280;20564;42.902;25.336;2022-08-01T06:26:09;96796.75;;;25.30;39.04
34297;BME280;20564;42.902;25.336;2022-08-01T06:28:37;96783.44;;;25.23;38.60
34297;BME280;20564;42.902;25.336;2022-08-01T06:31:05;96791.03;;;25.43;38.71
34297;BME280;20564;42.902;25.336;2022-08-01T06:33:32;96785.41;;;25.61;38.53
34297;BME280;20564;42.902;25.336;2022-08-01T06:35:59;96794.28;;;25.95;37.95
34297;BME280;20564;42.902;25.336;2022-08-01T06:38:26;96784.97;;;26.03;37.30
34297;BME280;20564;42.902;25.336;2022-08-01T06:40:53;96790.19;;;26.10;37.38
34297;BME280;20564;42.902;25.336;2022-08-01T06:43:21;96786.13;;;26.07;37.00
34297;BME280;20564;42.902;25.336;2022-08-01T06:45:48;96785.09;;;26.13;36.67
34297;BME280;20564;42.902;25.336;2022-08-01T06:48:18;96792.34;;;26.08;36.39
34297;BME280;20564;42.902;25.336;2022-08-01T06:50:45;96791.91;;;25.99;36.63
34297;BME280;20564;42.902;25.336;2022-08-01T06:53:12;96791.44;;;26.02;36.88
34297;BME280;20564;42.902;25.336;2022-08-01T06:55:39;96780.84;;;26.17;37.29
34297;BME280;20564;42.902;25.336;2022-08-01T06:58:06;96782.09;;;26.49;36.60
34297;BME280;20564;42.902;25.336;2022-08-01T07:00:33;96778.50;;;26.65;36.12
34297;BME280;20564;42.902;25.336;2022-08-01T07:03:00;96778.38;;;26.33;35.36
34297;BME280;20564;42.902;25.336;2022-08-01T07:05:28;96779.84;;;26.24;35.85
34297;BME280;20564;42.902;25.336;2022-08-01T07:07:57;96785.09;;;26.13;36.30
34297;BME280;20564;42.902;25.336;2022-08-01T07:10:25;96785.38;;;26.34;36.77
34297;BME280;20564;42.902;25.336;2022-08-01T07:12:52;96782.53;;;26.62;36.79
34297;BME280;20564;42.902;25.336;2022-08-01T07:15:19;96784.78;;;26.71;35.35
34297;BME280;20564;42.902;25.336;2022-08-01T07:17:48;96781.22;;;26.92;34.68
34297;BME280;20564;42.902;25.336;2022-08-01T07:20:15;96781.31;;;26.75;34.71
34297;BME280;20564;42.902;25.336;2022-08-01T07:22:43;96780.13;;;26.88;35.49
34297;BME280;20564;42.902;25.336;2022-08-01T07:25:14;96774.84;;;27.03;35.59
34297;BME280;20564;42.902;25.336;2022-08-01T07:27:41;96778.34;;;26.99;34.74
34297;BME280;20564;42.902;25.336;2022-08-01T07:30:08;96778.06;;;27.00;35.43
34297;BME280;20564;42.902;25.336;2022-08-01T07:32:35;96780.16;;;26.93;34.35
34297;BME280;20564;42.902;25.336;2022-08-01T07:35:03;96776.09;;;27.17;35.11
34297;BME280;20564;42.902;25.336;2022-08-01T07:37:30;96778.19;;;27.10;35.02
34297;BME280;20564;42.902;25.336;2022-08-01T07:40:16;96775.94;;;27.02;35.25
34297;BME280;20564;42.902;25.336;2022-08-01T07:42:45;96770.44;;;27.19;35.01
34297;BME280;20564;42.902;25.336;2022-08-01T07:45:13;96762.34;;;27.51;35.14
34297;BME280;20564;42.902;25.336;2022-08-01T07:47:41;96775.16;;;27.66;33.93
34297;BME280;20564;42.902;25.336;2022-08-01T07:50:08;96759.59;;;27.46;34.03
34297;BME280;20564;42.902;25.336;2022-08-01T07:52:35;96763.88;;;27.42;34.75
34297;BME280;20564;42.902;25.336;2022-08-01T07:55:02;96781.06;;;27.63;34.87
34297;BME280;20564;42.902;25.336;2022-08-01T07:57:30;96777.34;;;27.69;34.44
34297;BME280;20564;42.902;25.336;2022-08-01T07:59:57;96772.28;;;27.78;35.19
34297;BME280;20564;42.902;25.336;2022-08-01T08:02:24;96768.63;;;27.94;34.31
34297;BME280;20564;42.902;25.336;2022-08-01T08:04:51;96769.72;;;28.03;34.35
34297;BME280;20564;42.902;25.336;2022-08-01T08:07:19;96771.75;;;27.81;33.83
34297;BME280;20564;42.902;25.336;2022-08-01T08:09:46;96770.03;;;27.70;34.60
34297;BME280;20564;42.902;25.336;2022-08-01T08:12:16;96759.13;;;27.97;35.45
34297;BME280;20564;42.902;25.336;2022-08-01T08:14:53;96785.28;;;28.23;34.48
34297;BME280;20564;42.902;25.336;2022-08-01T08:17:22;96773.59;;;28.12;34.84
34297;BME280;20564;42.902;25.336;2022-08-01T08:19:50;96772.00;;;28.22;33.60
34297;BME280;20564;42.902;25.336;2022-08-01T08:22:17;96775.56;;;28.27;33.70
34297;BME280;20564;42.902;25.336;2022-08-01T08:24:44;96771.91;;;28.01;34.17
34297;BME280;20564;42.902;25.336;2022-08-01T08:27:12;96781.06;;;28.00;34.30
34297;BME280;20564;42.902;25.336;2022-08-01T08:29:39;96774.06;;;28.04;33.64
34297;BME280;20564;42.902;25.336;2022-08-01T08:32:07;96780.09;;;28.17;34.56
34297;BME280;20564;42.902;25.336;2022-08-01T08:34:35;96778.50;;;28.21;33.98
34297;BME280;20564;42.902;25.336;2022-08-01T08:37:02;96777.97;;;28.29;34.91
34297;BME280;20564;42.902;25.336;2022-08-01T08:39:29;96775.75;;;28.68;33.77
34297;BME280;20564;42.902;25.336;2022-08-01T08:42:09;96775.81;;;28.94;32.56
34297;BME280;20564;42.902;25.336;2022-08-01T08:44:38;96793.75;;;29.05;33.29
34297;BME280;20564;42.902;25.336;2022-08-01T08:47:12;96790.00;;;28.43;32.96
34297;BME280;20564;42.902;25.336;2022-08-01T08:49:45;96792.53;;;28.12;34.11
34297;BME280;20564;42.902;25.336;2022-08-01T08:52:15;96800.50;;;27.92;34.56
34297;BME280;20564;42.902;25.336;2022-08-01T08:54:45;96799.75;;;27.64;35.48
34297;BME280;20564;42.902;25.336;2022-08-01T08:57:14;96804.72;;;27.78;35.57
34297;BME280;20564;42.902;25.336;2022-08-01T08:59:44;96802.91;;;27.83;34.75
34297;BME280;20564;42.902;25.336;2022-08-01T09:02:12;96798.00;;;27.80;35.72
34297;BME280;20564;42.902;25.336;2022-08-01T09:04:40;96797.22;;;27.53;35.94
34297;BME280;20564;42.902;25.336;2022-08-01T09:07:07;96806.19;;;27.26;36.17
34297;BME280;20564;42.902;25.336;2022-08-01T09:09:37;96802.38;;;27.00;36.15
34297;BME280;20564;42.902;25.336;2022-08-01T09:12:07;96797.47;;;27.19;36.52
34297;BME280;20564;42.902;25.336;2022-08-01T09:14:44;96790.59;;;27.71;36.77
34297;BME280;20564;42.902;25.336;2022-08-01T09:17:12;96769.06;;;27.81;36.02
34297;BME280;20564;42.902;25.336;2022-08-01T09:19:41;96783.53;;;27.64;36.44
34297;BME280;20564;42.902;25.336;2022-08-01T09:22:11;96804.19;;;27.16;36.06
34297;BME280;20564;42.902;25.336;2022-08-01T09:24:39;96803.97;;;26.96;37.25
34297;BME280;20564;42.902;25.336;2022-08-01T09:27:20;96802.38;;;27.00;37.56
34297;BME280;20564;42.902;25.336;2022-08-01T09:29:52;96800.53;;;27.28;36.46
34297;BME280;20564;42.902;25.336;2022-08-01T09:32:29;96787.75;;;27.50;37.63
34297;BME280;20564;42.902;25.336;2022-08-01T09:35:37;96783.75;;;27.95;35.41
34297;BME280;20564;42.902;25.336;2022-08-01T09:38:16;96774.97;;;27.78;35.62
34297;BME280;20564;42.902;25.336;2022-08-01T09:40:57;96778.72;;;27.72;36.15
34297;BME280;20564;42.902;25.336;2022-08-01T09:43:27;96783.75;;;27.58;36.54
34297;BME280;20564;42.902;25.336;2022-08-01T09:45:55;96780.34;;;27.40;36.58
34297;BME280;20564;42.902;25.336;2022-08-01T09:48:26;96781.06;;;27.31;36.31
34297;BME280;20564;42.902;25.336;2022-08-01T09:50:56;96787.66;;;27.40;36.23
34297;BME280;20564;42.902;25.336;2022-08-01T09:53:48;96789.78;;;27.70;36.72
34297;BME280;20564;42.902;25.336;2022-08-01T09:56:20;96776.72;;;27.94;35.18
34297;BME280;20564;42.902;25.336;2022-08-01T09:58:56;96795.16;;;28.02;36.03
34297;BME280;20564;42.902;25.336;2022-08-01T10:01:47;96771.63;;;28.55;35.01
34297;BME280;20564;42.902;25.336;2022-08-01T10:04:18;96780.31;;;28.57;34.30
34297;BME280;20564;42.902;25.336;2022-08-01T10:06:47;96789.19;;;28.38;34.63
34297;BME280;20564;42.902;25.336;2022-08-01T10:09:31;96767.81;;;28.46;35.35
34297;BME280;20564;42.902;25.336;2022-08-01T10:12:07;96765.50;;;28.86;34.76
34297;BME280;20564;42.902;25.336;2022-08-01T10:14:42;96766.38;;;29.01;34.37
34297;BME280;20564;42.902;25.336;2022-08-01T10:17:15;96772.81;;;28.90;34.82
34297;BME280;20564;42.902;25.336;2022-08-01T10:19:45;96775.50;;;28.80;35.47
34297;BME280;20564;42.902;25.336;2022-08-01T10:22:14;96764.75;;;29.11;33.86
34297;BME280;20564;42.902;25.336;2022-08-01T10:24:47;96761.50;;;29.08;34.59
34297;BME280;20564;42.902;25.336;2022-08-01T10:27:16;96764.13;;;28.88;33.98
34297;BME280;20564;42.902;25.336;2022-08-01T10:30:04;96771.16;;;28.84;34.08
34297;BME280;20564;42.902;25.336;2022-08-01T10:32:52;96769.63;;;29.03;33.66
34297;BME280;20564;42.902;25.336;2022-08-01T10:35:21;96766.13;;;29.18;33.35
34297;BME280;20564;42.902;25.336;2022-08-01T10:38:08;96769.16;;;29.63;33.82
34297;BME280;20564;42.902;25.336;2022-08-01T10:40:40;96754.44;;;29.99;32.98
34297;BME280;20564;42.902;25.336;2022-08-01T10:43:09;96759.25;;;30.13;32.09
34297;BME280;20564;42.902;25.336;2022-08-01T10:45:38;96766.31;;;30.24;33.63
34297;BME280;20564;42.902;25.336;2022-08-01T10:48:11;96760.41;;;30.17;32.00
34297;BME280;20564;42.902;25.336;2022-08-01T10:50:47;96759.53;;;30.32;32.13
34297;BME280;20564;42.902;25.336;2022-08-01T10:53:17;96757.88;;;30.31;32.52
34297;BME280;20564;42.902;25.336;2022-08-01T10:58:29;96755.34;;;30.55;31.88
34297;BME280;20564;42.902;25.336;2022-08-01T11:03:43;96747.25;;;30.44;31.87
34297;BME280;20564;42.902;25.336;2022-08-01T11:09:04;96753.59;;;30.84;31.62
34297;BME280;20564;42.902;25.336;2022-08-01T11:11:32;96756.88;;;30.71;31.83
34297;BME280;20564;42.902;25.336;2022-08-01T11:14:19;96759.59;;;30.06;32.03
34297;BME280;20564;42.902;25.336;2022-08-01T11:16:52;96759.34;;;29.72;33.31
34297;BME280;20564;42.902;25.336;2022-08-01T11:19:19;96762.63;;;29.69;33.34
34297;BME280;20564;42.902;25.336;2022-08-01T11:27:29;96763.16;;;29.45;33.70
34297;BME280;20564;42.902;25.336;2022-08-01T11:32:56;96746.88;;;29.76;32.95
34297;BME280;20564;42.902;25.336;2022-08-01T11:35:38;96734.41;;;29.44;33.02
34297;BME280;20564;42.902;25.336;2022-08-01T11:38:26;96746.34;;;29.23;33.76
34297;BME280;20564;42.902;25.336;2022-08-01T11:41:30;96749.59;;;29.20;33.72
34297;BME280;20564;42.902;25.336;2022-08-01T11:44:23;96745.25;;;29.14;34.29
34297;BME280;20564;42.902;25.336;2022-08-01T11:47:06;96742.00;;;29.17;34.92
34297;BME280;20564;42.902;25.336;2022-08-01T11:55:07;96740.25;;;28.65;34.51
34297;BME280;20564;42.902;25.336;2022-08-01T11:57:36;96746.97;;;28.47;35.28
34297;BME280;20564;42.902;25.336;2022-08-01T12:00:12;96739.22;;;28.86;34.15
34297;BME280;20564;42.902;25.336;2022-08-01T12:02:42;96728.16;;;29.13;34.24
34297;BME280;20564;42.902;25.336;2022-08-01T12:05:13;96733.31;;;29.10;34.10
34297;BME280;20564;42.902;25.336;2022-08-01T12:07:42;96729.00;;;29.44;34.28
34297;BME280;20564;42.902;25.336;2022-08-01T12:10:15;96729.00;;;29.60;33.22
34297;BME280;20564;42.902;25.336;2022-08-01T12:12:45;96731.72;;;29.44;34.09
34297;BME280;20564;42.902;25.336;2022-08-01T12:15:13;96737.13;;;29.39;33.29
34297;BME280;20564;42.902;25.336;2022-08-01T12:17:45;96730.63;;;29.66;33.47
34297;BME280;20564;42.902;25.336;2022-08-01T12:20:34;96722.22;;;29.67;32.99
34297;BME280;20564;42.902;25.336;2022-08-01T12:23:04;96737.66;;;29.46;32.99
34297;BME280;20564;42.902;25.336;2022-08-01T12:25:33;96738.47;;;29.21;33.14
34297;BME280;20564;42.902;25.336;2022-08-01T12:28:02;96722.47;;;29.10;34.57
34297;BME280;20564;42.902;25.336;2022-08-01T12:30:31;96715.13;;;28.95;33.99
34297;BME280;20564;42.902;25.336;2022-08-01T12:33:09;96714.06;;;29.01;33.96
34297;BME280;20564;42.902;25.336;2022-08-01T12:35:38;96713.28;;;29.00;34.02
34297;BME280;20564;42.902;25.336;2022-08-01T12:38:17;96717.53;;;28.76;34.21
34297;BME280;20564;42.902;25.336;2022-08-01T12:40:46;96712.97;;;28.97;35.41
34297;BME280;20564;42.902;25.336;2022-08-01T12:43:21;96724.13;;;29.26;33.85
34297;BME280;20564;42.902;25.336;2022-08-01T12:45:55;96712.19;;;29.12;33.72
34297;BME280;20564;42.902;25.336;2022-08-01T12:48:25;96708.88;;;28.84;33.85
34297;BME280;20564;42.902;25.336;2022-08-01T12:50:53;96716.44;;;28.77;34.20
34297;BME280;20564;42.902;25.336;2022-08-01T12:53:21;96707.47;;;28.56;34.29
34297;BME280;20564;42.902;25.336;2022-08-01T12:55:51;96707.09;;;28.32;34.42
34297;BME280;20564;42.902;25.336;2022-08-01T12:58:34;96707.84;;;28.17;35.72
34297;BME280;20564;42.902;25.336;2022-08-01T13:01:06;96704.97;;;28.44;34.36
34297;BME280;20564;42.902;25.336;2022-08-01T13:03:34;96702.38;;;28.75;33.34
34297;BME280;20564;42.902;25.336;2022-08-01T13:06:05;96699.19;;;29.08;33.78
34297;BME280;20564;42.902;25.336;2022-08-01T13:08:36;96687.22;;;29.55;34.01
34297;BME280;20564;42.902;25.336;2022-08-01T13:11:08;96691.25;;;29.89;32.76
34297;BME280;20564;42.902;25.336;2022-08-01T13:13:50;96693.06;;;30.14;31.81
34297;BME280;20564;42.902;25.336;2022-08-01T13:16:19;96694.53;;;30.45;31.23
34297;BME280;20564;42.902;25.336;2022-08-01T13:19:00;96694.78;;;30.54;30.50
34297;BME280;20564;42.902;25.336;2022-08-01T13:21:30;96703.41;;;30.66;30.89
34297;BME280;20564;42.902;25.336;2022-08-01T13:24:26;96696.25;;;30.31;30.75
34297;BME280;20564;42.902;25.336;2022-08-01T13:27:02;96701.84;;;29.75;30.53
34297;BME280;20564;42.902;25.336;2022-08-01T13:29:33;96705.41;;;29.35;31.43
34297;BME280;20564;42.902;25.336;2022-08-01T13:32:21;96701.34;;;29.37;32.32
34297;BME280;20564;42.902;25.336;2022-08-01T13:35:05;96684.78;;;29.64;32.88
34297;BME280;20564;42.902;25.336;2022-08-01T13:37:34;96692.59;;;29.76;31.47
34297;BME280;20564;42.902;25.336;2022-08-01T13:40:05;96701.03;;;29.74;31.92
34297;BME280;20564;42.902;25.336;2022-08-01T13:42:33;96693.19;;;29.73;31.88